createdAt,value
2018-11-06T00:02:21.106Z,20.50
2018-11-06T00:04:54.839Z,21.95
2018-11-06T00:07:23.012Z,18.42
2018-11-06T00:09:51.186Z,23.38
2018-11-06T00:12:19.357Z,23.02
2018-11-06T00:14:47.559Z,19.73
2018-11-06T00:17:15.730Z,22.90
2018-11-06T00:19:43.971Z,22.27
2018-11-06T00:22:12.124Z,19.45
2018-11-06T00:24:40.331Z,21.77
2018-11-06T00:27:08.621Z,21.40
2018-11-06T00:29:36.911Z,21.33
2018-11-06T00:32:05.108Z,18.87
2018-11-06T00:34:33.276Z,20.20
2018-11-06T00:37:01.466Z,19.80
2018-11-06T00:39:29.641Z,17.75
2018-11-06T00:41:57.962Z,20.97
2018-11-06T00:44:26.131Z,21.30
2018-11-06T00:46:55.155Z,21.90
2018-11-06T00:49:23.373Z,18.85
2018-11-06T00:51:51.586Z,22.22
2018-11-06T00:54:19.761Z,20.70
2018-11-06T00:56:47.963Z,20.75
2018-11-06T00:59:16.162Z,19.45
2018-11-06T01:01:44.334Z,20.23
2018-11-06T01:04:13.894Z,19.67
2018-11-06T01:06:42.198Z,20.27
2018-11-06T01:09:11.922Z,18.00
2018-11-06T01:11:40.907Z,21.33
2018-11-06T01:14:09.397Z,19.20
2018-11-06T01:16:37.766Z,18.10
2018-11-06T01:19:06.563Z,21.30
2018-11-06T01:21:34.895Z,21.33
2018-11-06T01:24:03.178Z,18.48
2018-11-06T01:26:31.593Z,19.05
2018-11-06T01:28:59.774Z,20.30
2018-11-06T01:31:27.982Z,20.17
2018-11-06T01:33:56.160Z,21.20
2018-11-06T01:36:24.377Z,20.82
2018-11-06T01:38:52.550Z,16.90
2018-11-06T01:41:20.745Z,20.97
2018-11-06T01:43:49.022Z,18.00
2018-11-06T01:46:17.303Z,19.92
2018-11-06T01:48:45.485Z,16.95
2018-11-06T01:51:13.673Z,20.97
2018-11-06T01:53:42.026Z,20.82
2018-11-06T01:56:10.210Z,19.10
2018-11-06T01:58:38.374Z,18.85
2018-11-06T02:01:06.551Z,18.05
2018-11-06T02:03:34.745Z,19.60
2018-11-06T02:06:02.945Z,18.98
2018-11-06T02:08:31.118Z,19.32
2018-11-06T02:10:59.306Z,20.55
2018-11-06T02:13:27.514Z,18.45
2018-11-06T02:15:55.725Z,18.48
2018-11-06T02:18:23.970Z,17.90
2018-11-06T02:20:52.148Z,19.13
2018-11-06T02:23:20.340Z,19.87
2018-11-06T02:25:48.517Z,16.77
2018-11-06T02:28:16.706Z,17.77
2018-11-06T02:30:44.884Z,18.50
2018-11-06T02:33:13.081Z,19.20
2018-11-06T02:35:41.266Z,19.07
2018-11-06T02:38:09.466Z,18.45
2018-11-06T02:40:37.634Z,15.83
2018-11-06T02:43:05.807Z,19.57
2018-11-06T02:45:33.995Z,18.63
2018-11-06T02:48:02.174Z,17.23
2018-11-06T02:50:30.368Z,18.30
2018-11-06T02:52:58.602Z,19.57
2018-11-06T02:55:26.775Z,18.35
2018-11-06T02:57:54.959Z,18.03
2018-11-06T03:00:23.133Z,18.52
2018-11-06T03:02:51.334Z,14.63
2018-11-06T03:05:19.509Z,17.20
2018-11-06T03:07:47.768Z,17.87
2018-11-06T03:10:16.011Z,15.53
2018-11-06T03:12:44.798Z,18.67
2018-11-06T03:15:14.010Z,17.17
2018-11-06T03:17:42.438Z,17.73
2018-11-06T03:20:11.373Z,17.77
2018-11-06T03:22:39.954Z,16.15
2018-11-06T03:25:08.223Z,17.73
2018-11-06T03:27:36.395Z,18.47
2018-11-06T03:30:06.110Z,17.03
2018-11-06T03:32:34.302Z,17.27
2018-11-06T03:35:02.484Z,15.23
2018-11-06T03:37:30.674Z,16.82
2018-11-06T03:39:58.859Z,16.17
2018-11-06T03:42:27.053Z,17.03
2018-11-06T03:44:55.226Z,16.83
2018-11-06T03:47:23.455Z,17.57
2018-11-06T03:49:51.641Z,15.83
2018-11-06T03:52:19.828Z,15.97
2018-11-06T03:54:48.007Z,14.80
2018-11-06T03:57:16.206Z,14.90
2018-11-06T03:59:44.519Z,18.67
2018-11-06T04:02:12.824Z,16.83
2018-11-06T04:04:41.039Z,17.80
2018-11-06T04:07:09.266Z,18.30
2018-11-06T04:09:37.449Z,17.13
2018-11-06T04:12:05.751Z,17.70
2018-11-06T04:14:33.950Z,16.70
2018-11-06T04:17:02.127Z,17.60
2018-11-06T04:19:30.319Z,16.40
2018-11-06T04:21:58.490Z,14.27
2018-11-06T04:24:26.699Z,16.50
2018-11-06T04:26:54.873Z,17.00
2018-11-06T04:29:23.073Z,16.70
2018-11-06T04:31:51.338Z,17.07
2018-11-06T04:34:19.536Z,17.20
2018-11-06T04:36:47.738Z,16.23
2018-11-06T04:39:15.978Z,15.98
2018-11-06T04:41:44.272Z,16.63
2018-11-06T04:44:12.443Z,15.60
2018-11-06T04:46:40.627Z,15.77
2018-11-06T04:49:08.838Z,15.17
2018-11-06T04:51:37.029Z,14.50
2018-11-06T04:54:05.231Z,13.53
2018-11-06T04:56:33.437Z,16.73
2018-11-06T04:59:01.618Z,14.97
2018-11-06T05:01:29.822Z,12.30
2018-11-06T05:03:58.093Z,12.28
2018-11-06T05:06:26.287Z,14.45
2018-11-06T05:08:54.467Z,14.83
2018-11-06T05:11:22.659Z,14.77
2018-11-06T05:13:50.868Z,13.53
2018-11-06T05:16:19.059Z,15.67
2018-11-06T05:18:47.235Z,15.68
2018-11-06T05:21:15.421Z,13.13
2018-11-06T05:23:43.617Z,14.40
2018-11-06T05:26:11.839Z,13.97
2018-11-06T05:28:40.043Z,12.57
2018-11-06T05:31:08.225Z,14.15
2018-11-06T05:33:36.710Z,13.00
2018-11-06T05:36:05.144Z,15.18
2018-11-06T05:38:34.779Z,15.27
2018-11-06T05:41:05.245Z,14.70
2018-11-06T05:43:34.155Z,14.43
2018-11-06T05:46:02.579Z,14.23
2018-11-06T05:48:30.935Z,13.23
2018-11-06T05:50:59.303Z,14.00
2018-11-06T05:53:27.692Z,13.83
2018-11-06T05:55:56.139Z,15.37
2018-11-06T05:58:24.455Z,14.07
2018-11-06T06:00:52.634Z,13.67
2018-11-06T06:03:20.829Z,12.80
2018-11-06T06:05:49.183Z,14.43
2018-11-06T06:08:17.379Z,14.57
2018-11-06T06:10:45.567Z,13.43
2018-11-06T06:13:13.762Z,13.77
2018-11-06T06:15:42.014Z,14.47
2018-11-06T06:18:10.984Z,14.53
2018-11-06T06:20:39.170Z,12.93
2018-11-06T06:23:07.445Z,14.97
2018-11-06T06:25:35.659Z,15.58
2018-11-06T06:28:03.847Z,14.17
2018-11-06T06:30:32.055Z,17.67
2018-11-06T06:33:00.507Z,15.27
2018-11-06T06:35:28.695Z,14.30
2018-11-06T06:37:57.033Z,16.67
2018-11-06T06:40:25.543Z,14.17
2018-11-06T06:42:53.779Z,15.10
2018-11-06T06:45:21.991Z,14.77
2018-11-06T06:47:50.168Z,15.17
2018-11-06T06:50:19.257Z,12.67
2018-11-06T06:52:47.843Z,12.50
2018-11-06T06:55:16.870Z,12.43
2018-11-06T06:57:45.917Z,12.63
2018-11-06T07:00:15.800Z,12.33
2018-11-06T07:02:44.037Z,15.57
2018-11-06T07:05:13.515Z,16.30
2018-11-06T07:07:42.614Z,15.13
2018-11-06T07:10:12.614Z,15.47
2018-11-06T07:12:41.802Z,13.27
2018-11-06T07:15:13.387Z,14.63
2018-11-06T07:17:41.954Z,14.93
2018-11-06T07:20:12.479Z,13.33
2018-11-06T07:22:40.721Z,13.10
2018-11-06T07:25:10.050Z,15.70
2018-11-06T07:27:38.751Z,15.63
2018-11-06T07:30:11.027Z,15.50
2018-11-06T07:32:39.594Z,15.50
2018-11-06T07:35:08.634Z,15.03
2018-11-06T07:37:37.087Z,13.73
2018-11-06T07:40:06.208Z,13.83
2018-11-06T07:42:34.441Z,12.30
2018-11-06T07:45:02.659Z,15.67
2018-11-06T07:47:30.927Z,17.27
2018-11-06T07:49:59.370Z,16.27
2018-11-06T07:52:27.531Z,16.17
2018-11-06T07:54:55.717Z,16.53
2018-11-06T07:57:23.907Z,16.27
2018-11-06T07:59:52.163Z,16.37
2018-11-06T08:02:20.354Z,16.87
2018-11-06T08:04:48.566Z,15.63
2018-11-06T08:07:16.795Z,16.77
2018-11-06T08:09:45.000Z,16.90
2018-11-06T08:12:13.143Z,15.93
2018-11-06T08:14:41.394Z,15.93
2018-11-06T08:17:09.573Z,16.30
2018-11-06T08:19:37.765Z,15.75
2018-11-06T08:22:07.077Z,15.53
2018-11-06T08:24:35.519Z,19.02
2018-11-06T08:27:03.742Z,16.85
2018-11-06T08:29:31.946Z,17.62
2018-11-06T08:32:00.715Z,18.37
2018-11-06T08:34:28.408Z,15.68
2018-11-06T08:36:56.683Z,17.73
2018-11-06T08:39:24.854Z,16.73
2018-11-06T08:41:53.047Z,15.45
2018-11-06T08:44:21.242Z,15.90
2018-11-06T08:46:49.463Z,14.95
2018-11-06T08:49:17.684Z,15.72
2018-11-06T08:51:45.948Z,13.08
2018-11-06T08:54:14.540Z,13.55
2018-11-06T08:56:42.717Z,14.43
2018-11-06T08:59:10.972Z,15.72
2018-11-06T09:01:39.154Z,15.98
2018-11-06T09:04:07.462Z,18.40
2018-11-06T09:06:35.667Z,17.70
2018-11-06T09:09:04.707Z,15.65
2018-11-06T09:11:32.903Z,18.27
2018-11-06T09:14:01.327Z,16.12
2018-11-06T09:16:29.546Z,15.78
2018-11-06T09:18:57.762Z,15.48
2018-11-06T09:21:25.954Z,11.75
2018-11-06T09:23:54.140Z,12.50
2018-11-06T09:26:22.340Z,15.63
2018-11-06T09:28:50.511Z,15.85
2018-11-06T09:31:18.695Z,12.60
2018-11-06T09:33:46.906Z,13.65
2018-11-06T09:36:15.110Z,11.73
2018-11-06T09:38:43.282Z,12.43
2018-11-06T09:41:11.486Z,11.65
2018-11-06T09:43:39.663Z,10.98
2018-11-06T09:46:07.892Z,9.25
2018-11-06T09:48:36.052Z,8.83
2018-11-06T09:51:04.455Z,8.30
2018-11-06T09:53:32.655Z,7.83
2018-11-06T09:56:00.862Z,8.00
2018-11-06T09:58:29.066Z,8.83
2018-11-06T10:00:57.238Z,9.50
2018-11-06T10:03:25.438Z,9.75
2018-11-06T10:05:53.714Z,9.15
2018-11-06T10:08:21.945Z,6.90
2018-11-06T10:10:50.138Z,9.20
2018-11-06T10:13:18.351Z,10.48
2018-11-06T10:15:46.553Z,8.73
2018-11-06T10:18:14.833Z,11.63
2018-11-06T10:20:43.063Z,9.55
2018-11-06T10:23:11.287Z,8.25
2018-11-06T10:25:39.513Z,7.20
2018-11-06T10:28:07.775Z,11.68
2018-11-06T10:30:35.996Z,11.50
2018-11-06T10:33:04.300Z,11.57
2018-11-06T10:35:32.495Z,10.23
2018-11-06T10:38:00.742Z,10.65
2018-11-06T10:40:28.892Z,7.37
2018-11-06T10:42:57.126Z,10.30
2018-11-06T10:45:25.332Z,11.57
2018-11-06T10:47:53.579Z,13.03
2018-11-06T10:50:21.779Z,12.63
2018-11-06T10:52:49.971Z,10.45
2018-11-06T10:55:18.199Z,11.60
2018-11-06T10:57:47.018Z,13.80
2018-11-06T11:00:20.813Z,14.20
2018-11-06T11:02:54.578Z,13.03
2018-11-06T11:05:24.567Z,12.28
2018-11-06T11:07:52.814Z,9.45
2018-11-06T11:10:21.070Z,9.15
2018-11-06T11:12:49.279Z,8.23
2018-11-06T11:15:17.495Z,7.37
2018-11-06T11:17:45.770Z,7.87
2018-11-06T11:20:14.782Z,6.92
2018-11-06T11:22:43.182Z,8.33
2018-11-06T11:25:12.819Z,10.00
2018-11-06T11:27:41.503Z,10.05
2018-11-06T11:30:11.226Z,10.38
2018-11-06T11:32:40.197Z,10.23
2018-11-06T11:35:08.383Z,11.30
2018-11-06T11:37:36.876Z,10.90
2018-11-06T11:40:06.545Z,9.43
2018-11-06T11:42:34.922Z,12.43
2018-11-06T11:45:03.216Z,10.10
2018-11-06T11:47:31.403Z,10.90
2018-11-06T11:49:59.603Z,10.43
2018-11-06T11:52:27.783Z,7.42
2018-11-06T11:54:55.987Z,8.93
2018-11-06T11:57:24.204Z,10.35
2018-11-06T11:59:52.434Z,8.43
2018-11-06T12:02:20.665Z,9.60
2018-11-06T12:04:48.922Z,9.75
2018-11-06T12:07:17.192Z,8.48
2018-11-06T12:09:45.363Z,8.68
2018-11-06T12:12:13.673Z,6.47
2018-11-06T12:14:41.892Z,8.13
2018-11-06T12:17:10.293Z,9.70
2018-11-06T12:19:38.503Z,10.95
2018-11-06T12:22:06.818Z,9.03
2018-11-06T12:24:35.084Z,8.85
2018-11-06T12:27:03.198Z,8.20
2018-11-06T12:29:31.446Z,9.13
2018-11-06T12:31:59.595Z,9.50
2018-11-06T12:34:27.787Z,10.03
2018-11-06T12:36:56.004Z,7.75
2018-11-06T12:39:24.181Z,7.15
2018-11-06T12:41:52.358Z,8.18
2018-11-06T12:44:20.526Z,9.23
2018-11-06T12:46:48.754Z,8.48
2018-11-06T12:49:16.971Z,8.05
2018-11-06T12:51:45.158Z,7.28
2018-11-06T12:54:13.358Z,8.28
2018-11-06T12:56:41.535Z,8.28
2018-11-06T12:59:09.738Z,5.75
2018-11-06T13:01:37.944Z,6.17
2018-11-06T13:04:06.142Z,7.65
2018-11-06T13:06:34.334Z,6.65
2018-11-06T13:09:02.559Z,7.50
2018-11-06T13:11:30.766Z,6.40
2018-11-06T13:13:58.963Z,6.97
2018-11-06T13:16:27.156Z,8.00
2018-11-06T13:18:55.422Z,7.50
2018-11-06T13:21:23.588Z,5.67
2018-11-06T13:23:51.810Z,6.78
2018-11-06T13:26:20.137Z,5.60
2018-11-06T13:28:48.262Z,7.72
2018-11-06T13:31:16.504Z,7.00
2018-11-06T13:33:44.712Z,7.50
2018-11-06T13:36:13.111Z,7.45
2018-11-06T13:38:41.333Z,9.15
2018-11-06T13:41:09.542Z,8.18
2018-11-06T13:43:37.902Z,5.78
2018-11-06T13:46:05.975Z,10.18
2018-11-06T13:48:34.298Z,8.08
2018-11-06T13:51:02.487Z,7.97
2018-11-06T13:53:30.902Z,7.70
2018-11-06T13:55:59.096Z,10.50
2018-11-06T13:58:27.283Z,8.55
2018-11-06T14:00:55.456Z,6.08
2018-11-06T14:03:23.651Z,5.80
2018-11-06T14:05:51.854Z,7.70
2018-11-06T14:08:20.396Z,7.42
2018-11-06T14:10:48.614Z,5.55
2018-11-06T14:13:16.834Z,6.42
2018-11-06T14:15:45.092Z,6.17
2018-11-06T14:18:13.278Z,6.15
2018-11-06T14:20:41.479Z,5.15
2018-11-06T14:23:09.686Z,4.75
2018-11-06T14:25:38.110Z,4.42
2018-11-06T14:28:06.325Z,5.58
2018-11-06T14:30:34.763Z,7.25
2018-11-06T14:33:02.989Z,4.50
2018-11-06T14:35:31.229Z,4.15
2018-11-06T14:37:59.475Z,5.30
2018-11-06T14:40:27.668Z,6.17
2018-11-06T14:42:55.960Z,4.47
2018-11-06T14:45:24.086Z,5.75
2018-11-06T14:47:52.335Z,4.65
2018-11-06T14:50:20.441Z,5.72
2018-11-06T14:52:48.684Z,7.42
2018-11-06T14:55:17.170Z,5.80
2018-11-06T14:57:45.363Z,6.33
2018-11-06T15:00:18.603Z,6.85
2018-11-06T15:02:47.966Z,8.03
2018-11-06T15:05:16.742Z,6.97
2018-11-06T15:07:45.034Z,6.80
2018-11-06T15:10:13.303Z,7.40
2018-11-06T15:12:41.777Z,5.58
2018-11-06T15:15:11.116Z,5.53
2018-11-06T15:17:39.710Z,5.17
2018-11-06T15:20:09.922Z,7.03
2018-11-06T15:22:38.593Z,6.47
2018-11-06T15:25:07.186Z,5.78
2018-11-06T15:27:35.387Z,6.97
2018-11-06T15:30:03.594Z,7.47
2018-11-06T15:32:31.775Z,6.75
2018-11-06T15:35:00.092Z,8.03
2018-11-06T15:37:28.275Z,7.70
2018-11-06T15:39:56.467Z,7.35
2018-11-06T15:42:24.698Z,7.08
2018-11-06T15:44:53.151Z,8.00
2018-11-06T15:47:21.602Z,7.22
2018-11-06T15:49:49.788Z,7.78
2018-11-06T15:52:18.099Z,10.65
2018-11-06T15:54:46.349Z,8.45
2018-11-06T15:57:14.554Z,6.95
2018-11-06T15:59:42.797Z,9.10
2018-11-06T16:02:10.934Z,8.30
2018-11-06T16:04:39.154Z,8.43
2018-11-06T16:07:07.538Z,8.00
2018-11-06T16:09:35.757Z,8.60
2018-11-06T16:12:03.974Z,9.83
2018-11-06T16:14:32.234Z,8.53
2018-11-06T16:17:00.570Z,9.63
2018-11-06T16:19:28.787Z,8.70
2018-11-06T16:21:57.039Z,9.50
2018-11-06T16:24:25.262Z,9.43
2018-11-06T16:26:53.494Z,9.53
2018-11-06T16:29:21.703Z,9.35
2018-11-06T16:31:50.979Z,11.25
2018-11-06T16:34:19.228Z,11.28
2018-11-06T16:36:47.450Z,10.23
2018-11-06T16:39:15.747Z,8.93
2018-11-06T16:41:43.992Z,9.50
2018-11-06T16:44:12.252Z,11.88
2018-11-06T16:46:40.552Z,11.60
2018-11-06T16:49:08.766Z,10.65
2018-11-06T16:51:37.088Z,8.08
2018-11-06T16:54:05.706Z,7.90
2018-11-06T16:56:33.933Z,8.90
2018-11-06T16:59:02.140Z,9.35
2018-11-06T17:01:30.420Z,8.10
2018-11-06T17:03:58.704Z,9.08
2018-11-06T17:06:32.398Z,14.18
2018-11-06T17:09:00.559Z,15.03
2018-11-06T17:11:28.819Z,10.95
2018-11-06T17:13:56.994Z,9.60
2018-11-06T17:16:25.322Z,9.33
2018-11-06T17:18:53.511Z,9.98
2018-11-06T17:21:21.714Z,9.33
2018-11-06T17:23:49.917Z,8.35
2018-11-06T17:26:18.102Z,7.90
2018-11-06T17:28:46.303Z,8.58
2018-11-06T17:31:14.519Z,8.00
2018-11-06T17:33:42.819Z,8.23
2018-11-06T17:36:11.026Z,8.10
2018-11-06T17:38:39.331Z,12.33
2018-11-06T17:41:07.718Z,9.18
2018-11-06T17:43:36.040Z,9.88
2018-11-06T17:46:04.692Z,9.98
2018-11-06T17:48:33.075Z,11.00
2018-11-06T17:51:01.343Z,12.13
2018-11-06T17:53:29.566Z,11.22
2018-11-06T17:55:57.778Z,12.82
2018-11-06T17:58:26.462Z,11.20
2018-11-06T18:00:54.644Z,11.43
2018-11-06T18:03:22.860Z,11.48
2018-11-06T18:05:51.102Z,12.25
2018-11-06T18:08:19.311Z,9.58
2018-11-06T18:10:47.545Z,12.00
2018-11-06T18:13:15.783Z,12.13
2018-11-06T18:15:44.019Z,11.10
2018-11-06T18:18:12.261Z,9.28
2018-11-06T18:20:40.504Z,10.25
2018-11-06T18:23:08.787Z,13.90
2018-11-06T18:25:37.471Z,14.18
2018-11-06T18:28:06.211Z,11.65
2018-11-06T18:30:34.440Z,10.93
2018-11-06T18:33:02.650Z,10.03
2018-11-06T18:35:30.886Z,11.45
2018-11-06T18:37:59.246Z,7.85
2018-11-06T18:40:27.487Z,10.28
2018-11-06T18:42:55.679Z,10.20
2018-11-06T18:45:23.937Z,11.93
2018-11-06T18:47:52.202Z,11.05
2018-11-06T18:50:20.568Z,11.10
2018-11-06T18:52:49.969Z,11.93
2018-11-06T18:55:18.259Z,10.60
2018-11-06T18:57:46.466Z,10.82
2018-11-06T19:00:16.092Z,25.25
2018-11-06T19:02:46.019Z,15.30
2018-11-06T19:05:14.874Z,16.85
2018-11-06T19:07:43.066Z,13.18
2018-11-06T19:10:12.572Z,12.03
2018-11-06T19:12:41.123Z,11.50
2018-11-06T19:15:12.354Z,12.65
2018-11-06T19:17:41.201Z,12.25
2018-11-06T19:20:10.160Z,12.40
2018-11-06T19:22:38.463Z,12.88
2018-11-06T19:25:07.490Z,11.33
2018-11-06T19:27:36.034Z,12.07
2018-11-06T19:30:05.731Z,12.13
2018-11-06T19:32:33.994Z,10.53
2018-11-06T19:35:02.302Z,12.82
2018-11-06T19:37:30.514Z,13.00
2018-11-06T19:39:59.006Z,12.23
2018-11-06T19:42:27.238Z,12.43
2018-11-06T19:44:55.598Z,11.03
2018-11-06T19:47:23.960Z,11.15
2018-11-06T19:49:52.175Z,12.35
2018-11-06T19:52:20.365Z,13.62
2018-11-06T19:54:48.587Z,11.97
2018-11-06T19:57:16.775Z,11.35
2018-11-06T19:59:45.110Z,12.43
2018-11-06T20:02:13.361Z,12.73
2018-11-06T20:04:41.713Z,13.50
2018-11-06T20:07:09.798Z,14.18
2018-11-06T20:09:38.066Z,13.50
2018-11-06T20:12:06.228Z,12.88
2018-11-06T20:14:34.523Z,12.25
2018-11-06T20:17:02.695Z,12.80
2018-11-06T20:19:30.874Z,13.28
2018-11-06T20:21:59.092Z,17.25
2018-11-06T20:24:27.266Z,16.27
2018-11-06T20:26:55.486Z,13.32
2018-11-06T20:29:23.734Z,14.68
2018-11-06T20:31:51.934Z,13.28
2018-11-06T20:34:20.277Z,13.25
2018-11-06T20:36:48.512Z,14.95
2018-11-06T20:39:16.707Z,17.75
2018-11-06T20:41:44.938Z,17.05
2018-11-06T20:44:13.163Z,15.55
2018-11-06T20:46:41.379Z,15.05
2018-11-06T20:49:09.568Z,15.80
2018-11-06T20:51:37.806Z,16.02
2018-11-06T20:54:06.020Z,15.13
2018-11-06T20:56:34.230Z,16.15
2018-11-06T20:59:02.453Z,16.12
2018-11-06T21:01:30.689Z,16.45
2018-11-06T21:03:58.896Z,20.10
2018-11-06T21:06:27.091Z,16.87
2018-11-06T21:08:55.310Z,18.37
2018-11-06T21:11:23.504Z,19.02
2018-11-06T21:13:51.841Z,18.35
2018-11-06T21:16:19.931Z,18.92
2018-11-06T21:18:48.143Z,17.73
2018-11-06T21:21:16.361Z,16.20
2018-11-06T21:23:44.594Z,15.00
2018-11-06T21:26:12.973Z,15.38
2018-11-06T21:28:41.008Z,14.28
2018-11-06T21:31:09.257Z,14.98
2018-11-06T21:33:37.434Z,15.20
2018-11-06T21:36:05.667Z,15.18
2018-11-06T21:38:33.846Z,12.43
2018-11-06T21:41:02.044Z,12.13
2018-11-06T21:43:30.212Z,13.43
2018-11-06T21:45:58.452Z,13.62
2018-11-06T21:48:26.667Z,14.23
2018-11-06T21:50:54.863Z,15.00
2018-11-06T21:53:23.078Z,14.38
2018-11-06T21:55:51.274Z,12.98
2018-11-06T21:58:19.455Z,15.28
2018-11-06T22:00:47.699Z,14.58
2018-11-06T22:03:15.848Z,13.35
2018-11-06T22:05:44.039Z,14.43
2018-11-06T22:08:12.235Z,15.65
2018-11-06T22:10:40.494Z,12.55
2018-11-06T22:13:08.771Z,14.43
2018-11-06T22:15:36.906Z,13.55
2018-11-06T22:18:05.115Z,15.15
2018-11-06T22:20:33.322Z,15.43
2018-11-06T22:23:01.495Z,17.05
2018-11-06T22:25:29.700Z,12.95
2018-11-06T22:27:57.915Z,15.48
2018-11-06T22:30:26.127Z,16.23
2018-11-06T22:32:54.326Z,15.88
2018-11-06T22:35:22.519Z,15.10
2018-11-06T22:37:50.715Z,15.68
2018-11-06T22:40:18.950Z,15.88
2018-11-06T22:42:47.354Z,16.62
2018-11-06T22:45:16.686Z,16.75
2018-11-06T22:47:44.911Z,17.07
2018-11-06T22:50:15.400Z,15.85
2018-11-06T22:52:44.401Z,15.35
2018-11-06T22:55:12.602Z,13.70
2018-11-06T22:57:40.792Z,14.83
2018-11-06T23:00:11.265Z,14.90
2018-11-06T23:02:39.511Z,16.15
2018-11-06T23:05:07.695Z,16.82
2018-11-06T23:07:41.356Z,13.20
2018-11-06T23:10:09.556Z,17.07
2018-11-06T23:12:37.758Z,14.93
2018-11-06T23:15:05.946Z,15.45
2018-11-06T23:17:34.139Z,14.50
2018-11-06T23:20:02.349Z,13.13
2018-11-06T23:22:30.511Z,14.60
2018-11-06T23:24:58.754Z,13.03
2018-11-06T23:27:27.078Z,13.15
2018-11-06T23:29:55.276Z,13.65
2018-11-06T23:32:23.472Z,12.15
2018-11-06T23:34:51.655Z,13.53
2018-11-06T23:37:19.827Z,13.15
2018-11-06T23:39:48.035Z,12.00
2018-11-06T23:42:16.229Z,12.68
2018-11-06T23:44:44.479Z,12.33
2018-11-06T23:47:12.661Z,13.13
2018-11-06T23:49:40.851Z,13.18
2018-11-06T23:52:09.022Z,11.73
2018-11-06T23:54:37.243Z,12.85
2018-11-06T23:57:05.480Z,12.80
2018-11-06T23:59:33.662Z,12.50
